Riyadh/Khaled, Saudi Arabia
Current Conditions -  °F | °C
As of 4:00 PM on Friday 24 Oct 2014 (Local Time) from OERK Reporting Station
Clear Clear  
Wind Chill: 97°   Ceiling: Unl
Heat Index: 97°   Visibility: 6mi
Dew Point: 34°   Wind: 3mph
Humidity: 11%   Direction: 350°N
Pressure: 29.97"   Gusts: NA
Location:  24.93°N, 46.72°E
Report Text: OERK 241300Z 35003KT CAVOK 36/01 Q1015 NOSIG
Loading
Personal Weather Stations






























Interactive Weather Map
Tropical Storm Tracking
New forecast layout! Learn more

10-Day Weather Forecast

Advertisements
Track Severe Weather on mobile